Time;durP1;ratioP1;P1;durP2;ratioP2;P2;SDS_P1;SDS_P2;PMS_P1;PMS_P2;Temp;Humidity;BMP_temperature;BMP_pressure;BME280_temperature;BME280_humidity;BME280_pressure;Samples;Min_cycle;Max_cycle;Signal;HPM_P1;HPM_P2
2022/11/25 00:01:21;;;;;;;18.25;13.30;;;11.00;1.00;;;;;;5011805;28;20033;-61
2022/11/25 00:03:47;;;;;;;20.45;13.20;;;10.90;1.00;;;;;;5012070;28;20471;-60
2022/11/25 00:06:19;;;;;;;17.50;13.18;;;11.00;1.00;;;;;;5010682;28;20030;-61
2022/11/25 00:08:46;;;;;;;18.33;13.35;;;10.90;1.00;;;;;;5011728;28;20018;-61
2022/11/25 00:11:13;;;;;;;17.25;13.10;;;10.50;1.00;;;;;;5017844;28;20105;-61
2022/11/25 00:13:40;;;;;;;20.48;14.40;;;10.70;1.00;;;;;;5031268;28;20028;-60
2022/11/25 00:16:08;;;;;;;21.50;13.93;;;10.80;1.00;;;;;;5019898;28;20475;-60
2022/11/25 00:18:34;;;;;;;17.65;14.57;;;10.90;1.00;;;;;;5026055;28;20034;-61
2022/11/25 00:21:09;;;;;;;19.15;13.68;;;10.90;1.00;;;;;;5015916;28;20075;-61
2022/11/25 00:23:35;;;;;;;20.15;14.90;;;10.90;1.00;;;;;;5020952;28;20106;-61
2022/11/25 00:26:10;;;;;;;21.70;15.82;;;10.90;1.00;;;;;;5010364;28;20030;-61
2022/11/25 00:28:35;;;;;;;23.58;16.08;;;10.90;1.00;;;;;;5018919;28;20429;-61
2022/11/25 00:31:05;;;;;;;19.75;15.43;;;10.90;1.00;;;;;;5014794;28;20480;-61
2022/11/25 00:33:31;;;;;;;22.13;16.85;;;10.90;1.00;;;;;;5032696;28;20079;-61
2022/11/25 00:36:00;;;;;;;20.02;15.82;;;11.00;1.00;;;;;;5008769;28;20115;-61
2022/11/25 00:38:25;;;;;;;18.67;15.30;;;11.00;1.00;;;;;;5021518;28;20041;-61
2022/11/25 00:44:34;;;;;;;23.25;15.98;;;11.00;1.00;;;;;;5028558;28;20128;-61
2022/11/25 00:46:21;;;;;;;21.13;15.97;;;11.00;1.00;;;;;;5014751;28;20143;-61
2022/11/25 00:48:47;;;;;;;20.85;15.98;;;11.00;1.00;;;;;;5017279;28;20057;-61
2022/11/25 00:51:12;;;;;;;23.80;15.88;;;11.00;1.00;;;;;;5028530;28;20030;-61
2022/11/25 00:53:38;;;;;;;19.40;16.50;;;11.00;1.00;;;;;;5001901;28;20060;-61
2022/11/25 00:56:13;;;;;;;18.48;16.08;;;11.00;1.00;;;;;;5020948;28;20033;-61
2022/11/25 00:58:40;;;;;;;22.98;16.13;;;10.80;1.00;;;;;;5020775;28;20033;-60
2022/11/25 01:01:05;;;;;;;21.52;15.57;;;10.80;1.00;;;;;;5024203;28;20033;-60
2022/11/25 01:03:31;;;;;;;18.98;15.65;;;10.90;1.00;;;;;;5015027;28;20037;-60
2022/11/25 01:06:02;;;;;;;22.25;16.35;;;10.90;1.00;;;;;;5020958;28;20036;-60
2022/11/25 01:08:31;;;;;;;24.10;16.25;;;10.80;1.00;;;;;;5031781;28;20029;-61
2022/11/25 01:11:07;;;;;;;21.00;15.88;;;10.90;1.00;;;;;;5024239;28;20395;-60
2022/11/25 01:13:33;;;;;;;21.65;15.45;;;10.90;1.00;;;;;;5022018;28;20022;-60
2022/11/25 01:16:03;;;;;;;17.60;15.35;;;10.70;1.00;;;;;;5020033;28;20021;-61
2022/11/25 01:18:29;;;;;;;19.10;15.80;;;10.80;1.00;;;;;;5031586;28;20027;-61
2022/11/25 01:21:04;;;;;;;19.27;16.15;;;10.80;1.00;;;;;;5026632;28;20060;-61
2022/11/25 01:23:29;;;;;;;16.75;14.18;;;10.80;1.00;;;;;;5022427;28;20018;-60
2022/11/25 01:25:55;;;;;;;21.67;15.35;;;10.90;1.00;;;;;;5019173;28;20109;-60
2022/11/25 01:28:20;;;;;;;18.50;15.15;;;10.90;1.00;;;;;;5026544;28;20021;-61
2022/11/25 01:30:46;;;;;;;21.35;15.07;;;11.00;1.00;;;;;;5023766;28;20030;-60
2022/11/25 01:33:11;;;;;;;20.98;16.00;;;11.00;1.00;;;;;;5033908;28;20026;-61
2022/11/25 01:35:37;;;;;;;22.27;16.42;;;11.00;1.00;;;;;;5028823;28;20056;-61
2022/11/25 01:38:03;;;;;;;21.27;15.45;;;11.00;1.00;;;;;;5029897;28;20101;-61
2022/11/25 01:40:29;;;;;;;20.08;15.55;;;11.00;1.00;;;;;;5012874;28;20058;-61
2022/11/25 01:42:54;;;;;;;19.77;16.58;;;11.00;1.00;;;;;;5028365;28;20116;-61
2022/11/25 01:45:23;;;;;;;18.83;15.80;;;11.00;1.00;;;;;;5031892;28;20445;-61
2022/11/25 01:47:50;;;;;;;22.25;15.68;;;11.00;1.00;;;;;;5033431;28;20165;-61
2022/11/25 01:50:20;;;;;;;17.67;15.77;;;11.00;1.00;;;;;;5027341;28;20052;-60
2022/11/25 01:52:50;;;;;;;20.67;17.05;;;10.90;1.00;;;;;;5033554;28;20027;-61
2022/11/25 01:55:23;;;;;;;21.38;16.75;;;11.00;1.00;;;;;;5019857;28;20026;-61
2022/11/25 01:57:57;;;;;;;22.25;17.00;;;10.90;1.00;;;;;;5033445;28;20100;-61
2022/11/25 02:00:24;;;;;;;26.27;17.25;;;10.90;1.00;;;;;;5024481;28;20507;-61
2022/11/25 02:02:53;;;;;;;19.52;15.18;;;10.90;1.00;;;;;;5033582;28;20018;-60
2022/11/25 02:05:24;;;;;;;18.35;16.38;;;10.90;1.00;;;;;;5020753;28;20545;-61
2022/11/25 02:07:51;;;;;;;19.85;16.52;;;10.90;1.00;;;;;;5033177;28;20021;-60
2022/11/25 02:10:27;;;;;;;20.20;16.38;;;10.90;1.00;;;;;;5033008;28;20108;-61
2022/11/25 02:12:53;;;;;;;21.45;16.67;;;10.90;1.00;;;;;;5005965;28;20048;-61
2022/11/25 02:15:20;;;;;;;19.50;16.48;;;10.90;1.00;;;;;;5022005;28;20030;-61
2022/11/25 02:17:46;;;;;;;21.27;15.82;;;10.90;1.00;;;;;;5031185;28;20138;-61
2022/11/25 02:20:17;;;;;;;21.75;15.93;;;10.90;1.00;;;;;;5030775;28;20156;-61
2022/11/25 02:23:01;;;;;;;18.15;15.27;;;10.80;1.00;;;;;;5004699;28;20083;-61
2022/11/25 02:25:38;;;;;;;19.65;14.45;;;10.80;1.00;;;;;;5032299;28;20045;-61
2022/11/25 02:28:06;;;;;;;21.17;14.52;;;10.80;1.00;;;;;;5031848;28;20026;-61
2022/11/25 02:30:33;;;;;;;18.45;14.90;;;10.80;1.00;;;;;;5032157;28;20025;-61
2022/11/25 02:32:59;;;;;;;18.33;15.25;;;10.80;1.00;;;;;;5018193;28;20112;-61
2022/11/25 02:35:34;;;;;;;19.60;14.68;;;10.80;1.00;;;;;;5028564;28;20041;-61
2022/11/25 02:38:04;;;;;;;19.23;14.98;;;10.80;1.00;;;;;;5021314;28;20038;-61
2022/11/25 02:40:32;;;;;;;16.17;14.25;;;10.80;1.00;;;;;;5032609;28;20048;-60
2022/11/25 02:42:59;;;;;;;18.70;14.45;;;10.80;1.00;;;;;;5014656;28;20030;-61
2022/11/25 02:45:56;;;;;;;21.50;14.95;;;10.90;1.00;;;;;;5015410;28;20103;-60
2022/11/25 02:48:23;;;;;;;15.15;13.55;;;10.80;1.00;;;;;;5015093;28;20083;-61
2022/11/25 02:50:48;;;;;;;18.60;13.82;;;10.80;1.00;;;;;;5031191;28;20079;-60
2022/11/25 02:53:14;;;;;;;19.15;14.23;;;10.80;1.00;;;;;;5032821;28;20371;-61
2022/11/25 02:55:40;;;;;;;15.60;13.73;;;10.90;1.00;;;;;;5018666;28;20253;-60
2022/11/25 02:58:05;;;;;;;17.60;13.13;;;10.80;1.00;;;;;;5029338;28;20029;-60
2022/11/25 03:00:31;;;;;;;14.98;13.38;;;10.80;1.00;;;;;;5032266;28;20068;-60
2022/11/25 03:02:57;;;;;;;15.30;12.30;;;10.90;1.00;;;;;;5032406;28;20174;-60
2022/11/25 03:05:41;;;;;;;19.08;13.73;;;10.80;1.00;;;;;;5014381;28;20037;-60
2022/11/25 03:08:08;;;;;;;18.27;13.27;;;10.80;1.00;;;;;;5012393;28;20022;-61
2022/11/25 03:10:34;;;;;;;17.92;12.98;;;10.70;1.00;;;;;;5012267;28;20029;-60
2022/11/25 03:13:00;;;;;;;14.30;12.48;;;10.80;1.00;;;;;;5012048;28;20018;-60
2022/11/25 03:15:25;;;;;;;19.50;14.40;;;10.80;1.00;;;;;;5012172;28;20036;-61
2022/11/25 03:17:51;;;;;;;18.17;13.57;;;10.70;1.00;;;;;;5013287;28;20101;-60
2022/11/25 03:20:18;;;;;;;16.88;13.65;;;10.80;1.00;;;;;;5019987;28;20050;-61
2022/11/25 03:22:43;;;;;;;19.95;14.75;;;10.70;1.00;;;;;;5025569;28;20017;-61
2022/11/25 03:25:11;;;;;;;16.25;13.13;;;10.70;1.00;;;;;;5013104;28;20028;-61
2022/11/25 03:27:37;;;;;;;20.10;14.13;;;10.80;1.00;;;;;;5012142;28;20018;-60
2022/11/25 03:30:05;;;;;;;14.90;13.40;;;10.70;1.00;;;;;;5012370;28;20021;-61
2022/11/25 03:32:30;;;;;;;17.17;13.75;;;10.80;1.00;;;;;;5011864;28;20026;-60
2022/11/25 03:34:56;;;;;;;16.33;13.57;;;10.80;1.00;;;;;;5017815;28;20030;-60
2022/11/25 03:37:22;;;;;;;17.20;13.48;;;10.60;1.00;;;;;;5019885;28;20021;-60
2022/11/25 03:39:48;;;;;;;17.00;13.52;;;10.80;1.00;;;;;;5032006;28;20049;-60
2022/11/25 03:42:13;;;;;;;16.10;12.68;;;10.80;1.00;;;;;;5017733;28;20052;-60
2022/11/25 03:44:39;;;;;;;16.33;13.65;;;10.70;1.00;;;;;;5032155;28;20034;-60
2022/11/25 03:47:04;;;;;;;19.27;14.23;;;10.60;1.00;;;;;;5018067;28;20038;-60
2022/11/25 03:49:30;;;;;;;16.08;12.52;;;10.60;1.00;;;;;;5025828;28;20037;-61
2022/11/25 03:51:56;;;;;;;16.38;12.35;;;10.60;1.00;;;;;;5030826;28;20025;-60
2022/11/25 03:54:21;;;;;;;16.05;12.88;;;10.60;1.00;;;;;;5035870;28;20148;-60
2022/11/25 03:56:47;;;;;;;18.65;13.07;;;10.50;1.00;;;;;;5035755;28;20101;-61
2022/11/25 03:59:12;;;;;;;17.65;13.73;;;10.60;1.00;;;;;;5034262;28;20020;-60
2022/11/25 04:01:38;;;;;;;16.30;12.73;;;10.50;1.00;;;;;;5026660;28;20352;-60
2022/11/25 04:04:04;;;;;;;16.50;13.30;;;10.50;1.00;;;;;;5014353;28;20048;-61
2022/11/25 04:06:30;;;;;;;17.10;12.93;;;10.60;1.00;;;;;;5024540;28;20049;-61
2022/11/25 04:08:56;;;;;;;16.67;12.05;;;10.60;1.00;;;;;;5034947;28;20029;-61
2022/11/25 04:12:45;;;;;;;17.02;12.68;;;10.60;1.00;;;;;;5026925;28;20048;-61
2022/11/25 04:14:08;;;;;;;14.80;12.23;;;10.80;1.00;;;;;;5034113;28;20034;-60
2022/11/25 04:16:33;;;;;;;15.73;13.13;;;10.80;1.00;;;;;;5022014;28;20467;-61
2022/11/25 04:18:59;;;;;;;17.23;13.13;;;10.80;1.00;;;;;;5025397;28;20022;-61
2022/11/25 04:21:25;;;;;;;17.95;12.95;;;10.80;1.00;;;;;;5033831;28;20095;-60
2022/11/25 04:23:50;;;;;;;13.93;12.52;;;10.90;1.00;;;;;;5034986;28;20017;-60
2022/11/25 04:26:16;;;;;;;17.92;13.13;;;10.80;1.00;;;;;;5035071;28;20375;-60
2022/11/25 04:28:41;;;;;;;18.48;12.10;;;10.90;1.00;;;;;;5027845;28;20069;-60
2022/11/25 04:31:08;;;;;;;19.02;12.95;;;10.90;1.00;;;;;;5013119;28;20436;-61
2022/11/25 04:33:34;;;;;;;16.13;12.05;;;10.90;1.00;;;;;;5013008;28;20420;-60
2022/11/25 04:35:59;;;;;;;17.17;13.68;;;10.80;1.00;;;;;;5016070;28;20028;-60
2022/11/25 04:38:25;;;;;;;16.55;12.25;;;10.90;1.00;;;;;;5014853;28;20065;-60
2022/11/25 04:40:51;;;;;;;17.38;12.02;;;11.00;1.00;;;;;;5015110;28;20038;-60
2022/11/25 04:43:17;;;;;;;18.25;11.30;;;11.00;1.00;;;;;;5015132;28;20045;-60
2022/11/25 04:45:43;;;;;;;20.30;12.68;;;10.90;1.00;;;;;;5014734;28;20368;-61
2022/11/25 04:48:09;;;;;;;16.67;13.40;;;10.90;1.00;;;;;;5028844;28;20028;-60
2022/11/25 04:50:34;;;;;;;15.45;11.65;;;10.90;1.00;;;;;;5025485;28;20025;-60
2022/11/25 04:53:00;;;;;;;18.08;12.18;;;10.90;1.00;;;;;;5034845;28;20340;-60
2022/11/25 04:55:26;;;;;;;15.80;11.27;;;10.90;1.00;;;;;;5020659;28;20030;-60
2022/11/25 04:57:51;;;;;;;15.23;10.77;;;10.80;1.00;;;;;;5034572;28;20037;-60
2022/11/25 05:00:18;;;;;;;16.02;11.75;;;10.70;1.00;;;;;;5026226;28;20598;-60
2022/11/25 05:02:43;;;;;;;17.55;11.15;;;10.70;1.00;;;;;;5033438;28;20468;-60
2022/11/25 05:05:09;;;;;;;15.35;12.15;;;10.60;1.00;;;;;;5023106;28;20048;-60
2022/11/25 05:07:35;;;;;;;15.25;11.90;;;10.60;1.00;;;;;;5034364;28;20020;-60
2022/11/25 05:10:00;;;;;;;14.50;10.65;;;10.60;1.00;;;;;;5034095;28;20048;-60
2022/11/25 05:12:28;;;;;;;19.67;12.20;;;10.60;1.00;;;;;;5016908;28;20101;-60
2022/11/25 05:14:54;;;;;;;14.07;10.55;;;10.70;1.00;;;;;;5005604;28;20382;-60
2022/11/25 05:17:22;;;;;;;14.95;10.85;;;10.60;1.00;;;;;;5034001;28;20027;-60
2022/11/25 05:19:49;;;;;;;14.68;10.55;;;10.40;1.00;;;;;;5024950;28;20042;-60
2022/11/25 05:22:18;;;;;;;13.57;10.35;;;10.40;1.00;;;;;;5026673;28;20025;-60
2022/11/25 05:24:43;;;;;;;13.82;10.20;;;10.40;1.00;;;;;;5033755;28;20022;-61
2022/11/25 05:27:09;;;;;;;13.30;9.98;;;10.40;1.00;;;;;;5021836;28;20033;-60
2022/11/25 05:29:36;;;;;;;12.98;10.02;;;10.40;1.00;;;;;;5003187;28;20025;-61
2022/11/25 05:35:30;;;;;;;13.93;10.10;;;10.50;1.00;;;;;;5008844;28;20043;-60
2022/11/25 05:38:04;;;;;;;17.00;10.05;;;10.50;1.00;;;;;;5018294;28;20103;-60
2022/11/25 05:40:30;;;;;;;16.33;10.23;;;10.50;1.00;;;;;;5033564;28;20030;-60
2022/11/25 05:42:59;;;;;;;16.67;10.05;;;10.50;1.00;;;;;;5033422;28;20025;-60
2022/11/25 05:45:25;;;;;;;18.58;11.55;;;10.50;1.00;;;;;;5025996;28;20448;-60
2022/11/25 05:47:50;;;;;;;14.95;10.35;;;10.60;1.00;;;;;;5013645;28;20050;-61
2022/11/25 05:50:16;;;;;;;14.38;11.05;;;10.50;1.00;;;;;;5018743;28;20037;-61
2022/11/25 05:52:41;;;;;;;19.95;11.85;;;10.50;1.00;;;;;;5033402;28;20029;-61
2022/11/25 05:55:07;;;;;;;16.70;13.80;;;10.50;1.00;;;;;;5033263;28;20056;-61
2022/11/25 05:57:33;;;;;;;17.88;14.35;;;10.60;1.00;;;;;;5033408;28;20487;-61
2022/11/25 05:59:58;;;;;;;19.67;16.35;;;10.40;1.00;;;;;;5033177;28;20415;-60
2022/11/25 06:02:24;;;;;;;19.98;17.88;;;10.40;1.00;;;;;;5033134;28;20030;-61
2022/11/25 06:04:49;;;;;;;19.70;16.83;;;10.40;1.00;;;;;;5019744;28;20065;-60
2022/11/25 06:07:15;;;;;;;21.70;17.85;;;10.50;1.00;;;;;;5032378;28;20037;-60
2022/11/25 06:09:41;;;;;;;21.27;17.42;;;10.60;1.00;;;;;;5033200;28;20098;-61
2022/11/25 06:12:06;;;;;;;22.05;19.50;;;10.70;1.00;;;;;;5032823;28;20383;-60
2022/11/25 06:14:32;;;;;;;25.08;20.10;;;10.50;1.00;;;;;;5029119;28;20042;-60
2022/11/25 06:16:57;;;;;;;23.73;21.10;;;10.50;1.00;;;;;;5013131;28;20034;-60
2022/11/25 06:19:23;;;;;;;24.88;21.58;;;10.60;1.00;;;;;;5027269;28;20456;-60
2022/11/25 06:21:49;;;;;;;23.42;20.95;;;10.50;1.00;;;;;;5026832;28;20024;-60
2022/11/25 06:24:14;;;;;;;22.95;20.52;;;10.60;1.00;;;;;;5031704;28;20438;-61
2022/11/25 06:26:40;;;;;;;28.92;20.13;;;10.70;1.00;;;;;;5032941;28;20503;-60
2022/11/25 06:32:28;;;;;;;26.20;22.50;;;10.80;1.00;;;;;;5002470;28;20083;-60
2022/11/25 06:34:53;;;;;;;25.08;22.42;;;10.50;1.00;;;;;;5032701;28;20033;-61
2022/11/25 06:37:19;;;;;;;32.08;23.05;;;10.50;1.00;;;;;;5032948;28;20025;-61
2022/11/25 06:39:44;;;;;;;24.80;22.27;;;10.50;1.00;;;;;;5032901;28;20041;-61
2022/11/25 06:42:10;;;;;;;27.65;22.45;;;10.60;1.00;;;;;;5033365;28;20391;-61
2022/11/25 06:44:36;;;;;;;25.20;21.73;;;10.70;1.00;;;;;;5029223;28;20112;-61
2022/11/25 06:47:01;;;;;;;24.88;20.88;;;10.60;1.00;;;;;;5032335;28;20045;-60
2022/11/25 06:49:28;;;;;;;30.90;22.63;;;10.70;1.00;;;;;;5026735;28;20492;-60
2022/11/25 06:51:53;;;;;;;31.50;23.98;;;10.70;1.00;;;;;;5031604;28;20010;-60
2022/11/25 06:54:19;;;;;;;28.10;23.95;;;10.60;1.00;;;;;;5032819;28;20029;-60
2022/11/25 06:56:50;;;;;;;27.77;23.88;;;10.50;1.00;;;;;;5032338;28;20018;-59
2022/11/25 06:59:16;;;;;;;29.60;24.27;;;10.70;1.00;;;;;;5032164;28;20424;-60
2022/11/25 07:01:42;;;;;;;29.65;23.05;;;10.60;1.00;;;;;;5030060;28;20435;-59
2022/11/25 07:04:07;;;;;;;29.25;23.52;;;10.60;1.00;;;;;;5030214;28;20025;-59
2022/11/25 07:06:33;;;;;;;27.30;24.17;;;10.70;1.00;;;;;;5026220;28;20392;-59
2022/11/25 07:08:59;;;;;;;29.08;25.08;;;10.60;1.00;;;;;;5030618;28;20025;-59
2022/11/25 07:11:28;;;;;;;29.13;24.00;;;10.60;1.00;;;;;;5032140;28;20025;-59
2022/11/25 07:13:56;;;;;;;31.98;26.67;;;10.60;1.00;;;;;;5032068;28;20021;-60
2022/11/25 07:16:22;;;;;;;29.73;25.42;;;10.50;1.00;;;;;;5031747;28;20029;-59
2022/11/25 07:18:49;;;;;;;33.65;25.95;;;10.50;1.00;;;;;;5022493;28;20107;-59
2022/11/25 07:21:18;;;;;;;30.17;25.13;;;10.60;1.00;;;;;;5021177;28;20040;-60
2022/11/25 07:23:44;;;;;;;37.95;27.85;;;10.70;1.00;;;;;;5017121;28;20027;-60
2022/11/25 07:26:20;;;;;;;38.08;28.65;;;10.70;1.00;;;;;;5031392;28;20486;-60
2022/11/25 07:28:47;;;;;;;43.10;32.13;;;10.60;1.00;;;;;;5029587;28;20026;-60
2022/11/25 07:31:26;;;;;;;42.42;32.63;;;10.80;1.00;;;;;;5032072;28;20022;-60
2022/11/25 07:33:56;;;;;;;41.53;30.25;;;10.80;1.00;;;;;;5031449;28;20025;-60
2022/11/25 07:36:22;;;;;;;34.72;29.33;;;10.80;1.00;;;;;;5010926;28;20502;-60
2022/11/25 07:38:48;;;;;;;33.95;29.23;;;10.90;1.00;;;;;;5020302;28;20026;-60
2022/11/25 07:41:20;;;;;;;35.88;27.95;;;10.90;1.00;;;;;;5026693;28;20026;-60
2022/11/25 07:43:48;;;;;;;31.27;27.08;;;10.90;1.00;;;;;;5023707;28;20033;-60
2022/11/25 07:46:28;;;;;;;32.97;27.88;;;11.00;1.00;;;;;;5028264;28;20045;-61
2022/11/25 07:48:56;;;;;;;33.53;27.77;;;11.00;1.00;;;;;;5030376;28;20056;-61
2022/11/25 07:51:24;;;;;;;31.30;27.85;;;11.10;1.00;;;;;;5026232;28;20036;-60
2022/11/25 07:53:51;;;;;;;37.65;28.95;;;11.10;1.00;;;;;;5031902;28;20474;-61
2022/11/25 07:56:17;;;;;;;39.58;30.98;;;11.10;1.00;;;;;;5013874;28;20038;-61
2022/11/25 07:58:43;;;;;;;37.45;32.22;;;11.10;1.00;;;;;;5007235;28;20041;-61
2022/11/25 08:01:10;;;;;;;37.67;31.90;;;11.20;1.00;;;;;;5031049;28;20447;-61
2022/11/25 08:03:38;;;;;;;35.85;31.95;;;11.00;1.00;;;;;;5012507;28;20041;-61
2022/11/25 08:06:06;;;;;;;43.20;33.58;;;11.10;1.00;;;;;;5021773;28;20116;-62
2022/11/25 08:08:32;;;;;;;39.78;32.97;;;11.10;1.00;;;;;;5021237;28;20099;-61
2022/11/25 08:10:58;;;;;;;37.80;33.45;;;11.20;1.00;;;;;;5031156;28;20486;-61
2022/11/25 08:13:24;;;;;;;43.42;34.00;;;11.30;1.00;;;;;;5028058;28;20026;-61
2022/11/25 08:15:49;;;;;;;38.15;33.55;;;11.30;1.00;;;;;;5018459;28;20022;-61
2022/11/25 08:18:16;;;;;;;43.28;33.90;;;11.40;1.00;;;;;;5031053;28;20519;-61
2022/11/25 08:20:41;;;;;;;44.80;33.88;;;11.40;1.00;;;;;;5022631;28;20034;-61
2022/11/25 08:23:07;;;;;;;48.17;37.17;;;11.40;1.00;;;;;;5022294;28;20440;-61
2022/11/25 08:25:37;;;;;;;48.40;40.08;;;11.50;1.00;;;;;;5026076;28;20368;-61
2022/11/25 08:28:03;;;;;;;44.67;36.50;;;11.30;1.00;;;;;;5013322;28;20030;-61
2022/11/25 08:30:29;;;;;;;46.60;38.50;;;11.50;1.00;;;;;;5020222;28;20036;-60
2022/11/25 08:32:54;;;;;;;46.78;37.05;;;11.60;1.00;;;;;;5030742;28;20034;-61
2022/11/25 08:35:20;;;;;;;49.15;37.88;;;11.70;1.00;;;;;;5029596;28;20021;-61
2022/11/25 08:37:45;;;;;;;50.95;37.50;;;11.80;1.00;;;;;;5034701;28;20026;-61
2022/11/25 08:40:12;;;;;;;48.33;38.67;;;11.90;1.00;;;;;;5023582;28;20452;-61
2022/11/25 08:42:37;;;;;;;50.78;39.05;;;11.90;1.00;;;;;;5034114;28;20057;-61
2022/11/25 08:45:04;;;;;;;48.88;39.92;;;12.00;1.00;;;;;;5034708;28;20055;-61
2022/11/25 08:47:30;;;;;;;50.85;41.13;;;12.00;1.00;;;;;;5023632;28;20045;-61
2022/11/25 08:49:56;;;;;;;52.42;41.75;;;12.00;1.00;;;;;;5024397;28;20038;-61
2022/11/25 08:52:22;;;;;;;54.65;40.50;;;12.00;1.00;;;;;;5034567;28;20014;-61
2022/11/25 08:54:48;;;;;;;52.75;42.67;;;11.90;1.00;;;;;;5034584;28;20030;-61
2022/11/25 08:57:14;;;;;;;50.55;40.88;;;12.00;1.00;;;;;;5034508;28;20033;-61
2022/11/25 08:59:40;;;;;;;54.00;42.22;;;12.00;1.00;;;;;;5026087;28;20380;-61
2022/11/25 09:02:06;;;;;;;53.28;40.88;;;12.00;1.00;;;;;;5002788;28;20387;-61
2022/11/25 09:04:32;;;;;;;51.53;42.03;;;12.00;1.00;;;;;;5010800;28;20559;-61
2022/11/25 09:06:58;;;;;;;54.85;42.22;;;12.10;1.00;;;;;;5012436;28;20086;-62
2022/11/25 09:09:24;;;;;;;53.20;41.67;;;12.10;1.00;;;;;;5012111;28;20395;-61
2022/11/25 09:11:50;;;;;;;55.60;43.22;;;12.00;1.00;;;;;;5013329;28;20109;-61
2022/11/25 09:14:16;;;;;;;52.45;40.60;;;11.90;1.00;;;;;;5030637;28;20440;-61
2022/11/25 09:16:42;;;;;;;50.78;40.75;;;12.20;1.00;;;;;;5020940;28;20029;-61
2022/11/25 09:19:08;;;;;;;56.72;43.58;;;12.20;1.00;;;;;;5027882;28;20592;-61
2022/11/25 09:21:33;;;;;;;53.88;41.28;;;12.20;1.00;;;;;;5025957;28;20021;-62
2022/11/25 09:23:59;;;;;;;58.40;44.47;;;12.40;1.00;;;;;;5033834;28;20427;-61
2022/11/25 09:26:29;;;;;;;50.92;40.03;;;12.20;1.00;;;;;;5033773;28;20034;-60
2022/11/25 09:28:55;;;;;;;52.10;41.53;;;12.20;1.00;;;;;;5019372;28;20475;-60
2022/11/25 09:31:21;;;;;;;55.22;42.78;;;12.20;1.00;;;;;;5031192;28;20057;-60
2022/11/25 09:33:47;;;;;;;54.60;43.92;;;12.10;1.00;;;;;;5027328;28;20034;-60
2022/11/25 09:36:15;;;;;;;53.05;42.13;;;12.10;1.00;;;;;;5019394;28;20025;-60
2022/11/25 09:38:43;;;;;;;49.90;41.00;;;12.10;1.00;;;;;;5030413;28;20109;-61
2022/11/25 09:47:47;;;;;;;50.67;40.67;;;12.30;1.00;;;;;;5026425;28;20526;-61
2022/11/25 09:50:47;;;;;;;51.92;41.28;;;12.50;1.00;;;;;;5014019;28;20082;-61
2022/11/25 09:53:16;;;;;;;55.53;42.90;;;12.40;1.00;;;;;;5033303;28;20025;-61
2022/11/25 09:55:46;;;;;;;52.63;40.75;;;12.40;1.00;;;;;;5033198;28;20109;-61
2022/11/25 09:58:17;;;;;;;60.63;41.60;;;12.30;1.00;;;;;;5032976;28;20323;-61
2022/11/25 10:00:46;;;;;;;55.08;40.92;;;12.20;1.00;;;;;;5030972;28;20130;-61
2022/11/25 10:03:17;;;;;;;55.22;41.63;;;12.40;1.00;;;;;;5032851;28;20380;-61
2022/11/25 10:05:57;;;;;;;55.08;42.60;;;12.40;1.00;;;;;;5027176;28;20108;-60
2022/11/25 10:08:35;;;;;;;51.28;39.90;;;12.40;1.00;;;;;;5032918;28;20126;-60
2022/11/25 10:11:35;;;;;;;56.58;42.78;;;12.40;1.00;;;;;;5033257;28;20025;-60
2022/11/25 10:14:05;;;;;;;54.97;41.80;;;12.50;1.00;;;;;;4999174;28;20069;-60
2022/11/25 10:16:57;;;;;;;52.35;41.15;;;12.50;1.00;;;;;;5029687;28;20487;-60
2022/11/25 10:19:59;;;;;;;53.08;40.05;;;12.60;1.00;;;;;;5022680;28;20120;-60
2022/11/25 10:22:34;;;;;;;52.95;41.00;;;12.60;1.00;;;;;;5006899;28;20061;-60
2022/11/25 10:25:26;;;;;;;48.67;39.33;;;12.70;1.00;;;;;;5032345;28;20082;-60
2022/11/25 10:27:54;;;;;;;43.75;35.83;;;12.70;1.00;;;;;;5032317;28;20392;-61
2022/11/25 10:30:22;;;;;;;47.20;36.15;;;12.80;1.00;;;;;;5024292;28;20049;-61
2022/11/25 10:33:17;;;;;;;43.65;33.97;;;12.70;1.00;;;;;;5032536;28;20068;-60
2022/11/25 10:35:53;;;;;;;46.40;36.10;;;12.90;1.00;;;;;;5012525;28;20172;-61
2022/11/25 10:38:26;;;;;;;44.55;36.30;;;12.90;1.00;;;;;;5032238;28;20033;-61
2022/11/25 10:40:53;;;;;;;41.75;33.13;;;13.10;1.00;;;;;;5032005;28;20040;-60
2022/11/25 10:43:19;;;;;;;43.15;35.42;;;13.10;1.00;;;;;;5032108;28;20057;-60
2022/11/25 10:46:30;;;;;;;45.28;35.92;;;13.30;1.00;;;;;;5021193;28;20441;-60
2022/11/25 10:49:27;;;;;;;41.70;35.60;;;13.40;1.00;;;;;;5030696;28;20069;-60
2022/11/25 10:51:53;;;;;;;45.08;35.03;;;13.50;1.00;;;;;;5023933;28;20026;-61
2022/11/25 10:54:22;;;;;;;44.00;36.00;;;13.40;1.00;;;;;;5018096;28;20502;-60
2022/11/25 10:56:58;;;;;;;41.83;34.13;;;13.50;1.00;;;;;;5032031;28;20036;-61
2022/11/25 10:59:26;;;;;;;47.42;36.90;;;13.50;1.00;;;;;;5030857;28;20075;-61
2022/11/25 11:02:05;;;;;;;44.63;35.50;;;13.60;1.00;;;;;;5017226;28;20029;-61
2022/11/25 11:04:32;;;;;;;45.30;36.40;;;13.60;1.00;;;;;;5013224;28;20361;-61
2022/11/25 11:07:07;;;;;;;46.20;35.55;;;13.60;1.00;;;;;;5020600;28;20108;-60
2022/11/25 11:09:39;;;;;;;44.78;36.65;;;13.70;1.00;;;;;;5032291;28;20112;-60
2022/11/25 11:12:18;;;;;;;42.97;35.45;;;13.80;1.00;;;;;;5031897;28;20040;-61
2022/11/25 11:14:44;;;;;;;42.13;35.15;;;13.80;1.00;;;;;;5031646;28;20028;-61
2022/11/25 11:17:29;;;;;;;42.00;35.60;;;13.60;1.00;;;;;;5025427;28;20017;-62
2022/11/25 11:20:01;;;;;;;;;;;13.60;1.00;;;;;;5017977;28;20129;-61
2022/11/25 11:22:27;;;;;;;42.92;35.22;;;13.30;1.00;;;;;;5031818;28;19905;-61
2022/11/25 11:28:34;;;;;;;40.35;32.78;;;13.20;1.00;;;;;;5004043;28;20080;-60
2022/11/25 11:31:06;;;;;;;42.47;35.38;;;13.20;1.00;;;;;;5015900;28;20120;-61
2022/11/25 11:33:59;;;;;;;45.70;35.08;;;13.20;1.00;;;;;;5020669;28;20014;-61
2022/11/25 11:36:41;;;;;;;39.80;33.20;;;13.20;1.00;;;;;;5002423;28;20033;-61
2022/11/25 11:39:37;;;;;;;42.30;34.85;;;13.30;1.00;;;;;;5008660;28;20041;-61
2022/11/25 11:42:27;;;;;;;40.25;34.28;;;13.30;1.00;;;;;;5020845;28;20069;-61
2022/11/25 11:45:44;;;;;;;42.10;34.83;;;13.30;1.00;;;;;;5012934;28;20101;-60
2022/11/25 11:48:45;;;;;;;44.15;34.45;;;13.40;1.00;;;;;;4975768;28;20060;-60
2022/11/25 11:51:14;;;;;;;49.65;34.85;;;13.40;1.00;;;;;;5004769;28;20399;-61
2022/11/25 11:53:54;;;;;;;44.22;36.25;;;13.30;1.00;;;;;;5017560;28;20025;-60
2022/11/25 11:56:32;;;;;;;47.72;37.13;;;13.40;1.00;;;;;;4999967;28;20105;-60
2022/11/25 11:59:15;;;;;;;42.83;34.85;;;13.30;1.00;;;;;;5011324;28;20184;-60
2022/11/25 12:01:52;;;;;;;44.75;34.20;;;13.40;1.00;;;;;;5010791;28;20042;-59
2022/11/25 12:04:28;;;;;;;46.90;36.67;;;13.40;1.00;;;;;;5011066;28;20026;-60
2022/11/25 12:07:39;;;;;;;42.65;34.42;;;13.40;1.00;;;;;;5008140;28;20030;-59
2022/11/25 12:10:13;;;;;;;42.13;35.75;;;13.50;1.00;;;;;;5000598;28;20112;-61
2022/11/25 12:12:49;;;;;;;37.38;32.25;;;13.50;1.00;;;;;;5017698;28;20447;-61
2022/11/25 12:15:34;;;;;;;37.45;29.25;;;13.40;1.00;;;;;;5006547;28;20043;-61
2022/11/25 12:18:13;;;;;;;38.92;31.50;;;13.50;1.00;;;;;;5011911;28;20088;-60
2022/11/25 12:20:41;;;;;;;38.40;29.23;;;13.50;1.00;;;;;;5014380;28;20076;-60
2022/11/25 12:23:19;;;;;;;32.58;27.92;;;13.40;1.00;;;;;;5014177;28;20472;-60
2022/11/25 12:25:50;;;;;;;34.28;27.33;;;13.40;1.00;;;;;;5007180;28;20045;-59
2022/11/25 12:28:31;;;;;;;32.40;27.88;;;13.40;1.00;;;;;;5014529;28;20041;-59
2022/11/25 12:31:10;;;;;;;35.42;28.67;;;13.40;1.00;;;;;;5022795;28;20106;-59
2022/11/25 12:34:02;;;;;;;36.05;29.70;;;13.40;1.00;;;;;;5023950;28;20030;-60
2022/11/25 12:36:42;;;;;;;33.78;27.50;;;13.40;1.00;;;;;;5011776;28;20037;-60
2022/11/25 12:39:29;;;;;;;69.78;38.65;;;13.20;1.00;;;;;;5009751;28;20380;-60
2022/11/25 12:42:00;;;;;;;33.72;29.20;;;13.20;1.00;;;;;;5025492;28;20511;-60
2022/11/25 12:44:40;;;;;;;37.65;29.67;;;13.10;1.00;;;;;;5030389;28;20101;-60
2022/11/25 12:47:10;;;;;;;38.90;27.98;;;13.20;1.00;;;;;;5013926;28;20055;-61
2022/11/25 12:49:45;;;;;;;35.75;28.40;;;13.10;1.00;;;;;;5027027;28;20048;-60
2022/11/25 12:52:32;;;;;;;36.15;28.60;;;13.20;1.00;;;;;;5016493;28;20380;-61
2022/11/25 12:55:03;;;;;;;37.95;29.23;;;13.10;1.00;;;;;;5014321;28;20057;-60
2022/11/25 12:57:50;;;;;;;44.35;32.42;;;13.20;1.00;;;;;;5016733;28;20124;-59
2022/11/25 13:00:29;;;;;;;36.78;28.48;;;13.20;1.00;;;;;;5026307;28;20044;-60
2022/11/25 13:03:01;;;;;;;35.00;28.00;;;13.20;1.00;;;;;;5010709;28;20495;-60
2022/11/25 13:05:48;;;;;;;54.05;37.17;;;13.20;1.00;;;;;;5016231;28;20026;-60
2022/11/25 13:08:25;;;;;;;35.08;29.90;;;13.20;1.00;;;;;;5020691;28;20088;-60
2022/11/25 13:11:14;;;;;;;36.30;29.25;;;13.20;1.00;;;;;;5013951;28;20025;-61
2022/11/25 13:13:58;;;;;;;35.45;28.13;;;13.30;1.00;;;;;;5020879;28;20111;-61